Kings Creek, South Carolina
Current Conditions -  °F | °C
As of 11:15 PM on Tuesday 21 Oct 2014 (Local Time) from KEHO Reporting Station
Clear Clear  
Wind Chill: 55°   Ceiling: Unl
Heat Index: 55°   Visibility: 10mi
Dew Point: 38°   Wind: 12mph
Humidity: 52%   Direction: 340°NNW
Pressure: 30"   Gusts: NA
Location:  35.1147°N, 81.4908°W
Report Text: KEHO 220315Z AUTO 34010KT 10SM CLR 13/03 A3000 RMK AO2 T01300032
Loading
Personal Weather Stations






























Interactive Weather Map
Tropical Storm Tracking
New forecast layout! Learn more

10-Day Weather Forecast

Advertisements
Track Severe Weather on mobile